createdAt,value
2022-08-17T00:02:26.580Z,7.25
2022-08-17T00:04:55.000Z,8.05
2022-08-17T00:07:23.003Z,7.63
2022-08-17T00:09:50.581Z,7.03
2022-08-17T00:12:43.236Z,7.22
2022-08-17T00:15:10.453Z,6.97
2022-08-17T00:17:38.816Z,7.43
2022-08-17T00:20:06.766Z,7.07
2022-08-17T00:22:36.738Z,8.38
2022-08-17T00:25:08.848Z,6.78
2022-08-17T00:27:37.222Z,7.40
2022-08-17T00:30:08.812Z,6.82
2022-08-17T00:33:23.255Z,6.70
2022-08-17T00:35:32.702Z,7.35
2022-08-17T00:38:00.600Z,6.10
2022-08-17T00:40:40.797Z,6.65
2022-08-17T00:43:35.599Z,6.60
2022-08-17T00:46:06.282Z,6.53
2022-08-17T00:48:33.880Z,7.35
2022-08-17T00:51:04.451Z,7.28
2022-08-17T00:53:33.445Z,6.57
2022-08-17T00:56:02.365Z,7.95
2022-08-17T00:58:36.336Z,7.63
2022-08-17T01:01:05.733Z,7.40
2022-08-17T01:03:33.841Z,7.47
2022-08-17T01:06:02.423Z,7.10
2022-08-17T01:08:31.858Z,6.72
2022-08-17T01:11:05.463Z,7.20
2022-08-17T01:13:40.789Z,7.07
2022-08-17T01:16:16.069Z,8.52
2022-08-17T01:18:44.674Z,6.72
2022-08-17T01:21:19.512Z,6.78
2022-08-17T01:23:47.075Z,6.68
2022-08-17T01:26:14.548Z,6.85
2022-08-17T01:28:54.857Z,6.78
2022-08-17T01:31:24.622Z,6.63
2022-08-17T01:33:52.260Z,6.07
2022-08-17T01:36:19.854Z,7.45
2022-08-17T01:38:47.372Z,7.70
2022-08-17T01:41:16.501Z,6.63
2022-08-17T01:43:46.713Z,6.35
2022-08-17T01:46:27.944Z,7.65
2022-08-17T01:48:56.410Z,5.88
2022-08-17T01:51:25.532Z,6.80
2022-08-17T01:53:55.092Z,8.00
2022-08-17T01:56:23.903Z,6.95
2022-08-17T01:58:52.065Z,8.02
2022-08-17T02:01:32.749Z,7.80
2022-08-17T02:04:01.262Z,7.15
2022-08-17T02:06:47.103Z,7.50
2022-08-17T02:09:25.218Z,7.20
2022-08-17T02:11:54.180Z,7.88
2022-08-17T02:14:21.773Z,6.72
2022-08-17T02:16:49.234Z,7.53
2022-08-17T02:19:17.635Z,7.15
2022-08-17T02:21:47.110Z,7.20
2022-08-17T02:24:18.348Z,7.88
2022-08-17T02:27:06.109Z,6.72
2022-08-17T02:29:33.635Z,6.82
2022-08-17T02:32:01.998Z,7.70
2022-08-17T02:34:30.145Z,6.97
2022-08-17T02:36:57.707Z,7.57
2022-08-17T02:39:25.223Z,7.07
2022-08-17T02:42:00.909Z,7.60
2022-08-17T02:44:38.998Z,6.82
2022-08-17T02:47:08.308Z,6.47
2022-08-17T02:49:35.822Z,6.85
2022-08-17T02:52:04.542Z,6.75
2022-08-17T02:54:40.053Z,6.47
2022-08-17T02:57:10.628Z,6.40
2022-08-17T02:59:39.431Z,6.65
2022-08-17T03:02:08.735Z,7.00
2022-08-17T03:04:36.359Z,6.70
2022-08-17T03:07:04.460Z,7.50
2022-08-17T03:09:32.123Z,6.85
2022-08-17T03:12:06.764Z,7.35
2022-08-17T03:14:37.020Z,7.30
2022-08-17T03:17:09.828Z,6.63
2022-08-17T03:19:42.223Z,6.18
2022-08-17T03:22:36.247Z,7.03
2022-08-17T03:24:58.765Z,6.90
2022-08-17T03:27:26.298Z,7.57
2022-08-17T03:29:55.195Z,8.13
2022-08-17T03:32:22.671Z,7.18
2022-08-17T03:34:50.179Z,7.20
2022-08-17T03:37:17.626Z,6.35
2022-08-17T03:39:45.252Z,6.20
2022-08-17T03:42:32.149Z,6.35
2022-08-17T03:45:00.181Z,6.90
2022-08-17T03:47:46.429Z,6.03
2022-08-17T03:50:33.711Z,6.60
2022-08-17T03:53:20.632Z,7.03
2022-08-17T03:56:06.785Z,7.10
2022-08-17T03:58:34.398Z,6.45
2022-08-17T04:01:02.482Z,7.43
2022-08-17T04:03:30.055Z,6.20
2022-08-17T04:05:57.631Z,6.15
2022-08-17T04:08:25.081Z,7.15
2022-08-17T04:10:52.646Z,6.97
2022-08-17T04:13:24.776Z,6.68
2022-08-17T04:15:53.062Z,6.72
2022-08-17T04:18:20.540Z,7.40
2022-08-17T04:20:48.035Z,5.80
2022-08-17T04:23:16.798Z,5.72
2022-08-17T04:25:46.773Z,7.28
2022-08-17T04:28:15.946Z,7.05
2022-08-17T04:30:45.326Z,6.20
2022-08-17T04:33:24.255Z,6.20
2022-08-17T04:35:56.272Z,5.75
2022-08-17T04:38:25.491Z,6.65
2022-08-17T04:41:11.827Z,6.93
2022-08-17T04:43:40.354Z,6.65
2022-08-17T04:46:09.451Z,6.43
2022-08-17T04:48:41.365Z,6.65
2022-08-17T04:51:12.131Z,6.38
2022-08-17T04:53:44.521Z,6.13
2022-08-17T04:56:16.160Z,6.53
2022-08-17T04:58:49.909Z,6.75
2022-08-17T05:01:23.643Z,6.63
2022-08-17T05:03:56.452Z,6.32
2022-08-17T05:06:24.287Z,6.97
2022-08-17T05:08:51.859Z,6.55
2022-08-17T05:11:19.348Z,6.57
2022-08-17T05:13:50.286Z,6.07
2022-08-17T05:16:18.581Z,6.00
2022-08-17T05:18:46.070Z,6.43
2022-08-17T05:21:13.993Z,6.53
2022-08-17T05:23:42.696Z,6.28
2022-08-17T05:26:20.446Z,7.28
2022-08-17T05:28:55.129Z,7.70
2022-08-17T05:31:24.916Z,7.05
2022-08-17T05:33:53.369Z,8.23
2022-08-17T05:36:43.543Z,7.13
2022-08-17T05:39:08.403Z,6.13
2022-08-17T05:41:43.094Z,7.68
2022-08-17T05:44:10.581Z,7.03
2022-08-17T05:46:40.775Z,6.65
2022-08-17T05:49:09.268Z,6.80
2022-08-17T05:51:45.918Z,7.20
2022-08-17T05:54:13.361Z,6.35
2022-08-17T05:56:53.055Z,7.60
2022-08-17T05:59:32.847Z,7.35
2022-08-17T06:02:19.140Z,7.20
2022-08-17T06:05:00.626Z,6.85
2022-08-17T06:07:46.816Z,5.82
2022-08-17T06:10:18.432Z,6.97
2022-08-17T06:12:49.065Z,7.05
2022-08-17T06:15:24.965Z,7.13
2022-08-17T06:17:57.111Z,6.78
2022-08-17T06:20:26.307Z,7.00
2022-08-17T06:23:00.001Z,7.60
2022-08-17T06:25:32.753Z,6.95
2022-08-17T06:28:05.803Z,7.25
2022-08-17T06:30:59.657Z,6.70
2022-08-17T06:33:29.747Z,6.57
2022-08-17T06:36:04.986Z,7.50
2022-08-17T06:38:46.777Z,7.10
2022-08-17T06:41:20.577Z,6.90
2022-08-17T06:43:51.020Z,6.90
2022-08-17T06:46:27.574Z,7.63
2022-08-17T06:48:58.108Z,6.35
2022-08-17T06:51:28.871Z,8.00
2022-08-17T06:54:11.385Z,6.50
2022-08-17T06:56:57.458Z,6.88
2022-08-17T06:59:47.173Z,7.05
2022-08-17T07:02:19.398Z,6.65
2022-08-17T07:04:56.935Z,6.90
2022-08-17T07:07:42.897Z,7.93
2022-08-17T07:10:11.165Z,6.80
2022-08-17T07:12:42.023Z,7.15
2022-08-17T07:15:14.899Z,5.63
2022-08-17T07:17:47.378Z,7.68
2022-08-17T07:20:17.992Z,6.97
2022-08-17T07:22:53.602Z,7.03
2022-08-17T07:25:27.749Z,6.40
2022-08-17T07:27:57.679Z,6.15
2022-08-17T07:30:27.012Z,7.20
2022-08-17T07:32:59.076Z,8.20
2022-08-17T07:35:31.217Z,7.30
2022-08-17T07:38:24.302Z,6.55
2022-08-17T07:41:03.240Z,7.40
2022-08-17T07:43:36.917Z,6.57
2022-08-17T07:46:25.859Z,7.57
2022-08-17T07:48:55.072Z,7.38
2022-08-17T07:51:25.334Z,6.75
2022-08-17T07:53:53.725Z,6.22
2022-08-17T07:56:36.367Z,6.72
2022-08-17T07:59:08.348Z,6.70
2022-08-17T08:01:41.635Z,7.13
2022-08-17T08:04:37.574Z,7.05
2022-08-17T08:07:21.853Z,6.45
2022-08-17T08:10:09.629Z,6.35
2022-08-17T08:12:47.830Z,5.97
2022-08-17T08:15:20.338Z,7.00
2022-08-17T08:17:51.508Z,6.90
2022-08-17T08:20:51.533Z,7.65
2022-08-17T08:23:09.574Z,7.22
2022-08-17T08:25:43.295Z,6.28
2022-08-17T08:28:14.160Z,7.43
2022-08-17T08:30:47.217Z,7.82
2022-08-17T08:33:32.970Z,7.05
2022-08-17T08:36:10.763Z,6.55
2022-08-17T08:38:38.262Z,9.30
2022-08-17T08:41:05.780Z,9.25
2022-08-17T08:43:39.312Z,8.18
2022-08-17T08:46:19.941Z,8.35
2022-08-17T08:49:10.046Z,7.93
2022-08-17T08:51:53.098Z,8.00
2022-08-17T08:54:31.498Z,7.15
2022-08-17T08:57:24.384Z,7.38
2022-08-17T09:00:15.145Z,7.70
2022-08-17T09:02:43.354Z,7.63
2022-08-17T09:05:31.196Z,8.52
2022-08-17T09:08:17.674Z,8.85
2022-08-17T09:10:45.259Z,7.43
2022-08-17T09:13:17.726Z,7.82
2022-08-17T09:15:48.996Z,6.82
2022-08-17T09:19:00.743Z,7.30
2022-08-17T09:21:14.557Z,10.93
2022-08-17T09:23:59.630Z,8.10
2022-08-17T09:26:39.577Z,9.05
2022-08-17T09:29:10.064Z,8.82
2022-08-17T09:31:50.370Z,8.63
2022-08-17T09:34:21.343Z,8.15
2022-08-17T09:36:55.734Z,8.57
2022-08-17T09:39:40.117Z,7.43
2022-08-17T09:42:11.719Z,8.48
2022-08-17T09:44:48.063Z,8.70
2022-08-17T09:47:18.935Z,7.70
2022-08-17T09:49:49.722Z,7.65
2022-08-17T09:52:17.852Z,7.35
2022-08-17T09:54:45.977Z,8.77
2022-08-17T09:57:31.399Z,7.60
2022-08-17T10:00:16.597Z,8.05
2022-08-17T10:02:56.220Z,8.32
2022-08-17T10:05:23.860Z,8.80
2022-08-17T10:07:57.592Z,8.20
2022-08-17T10:10:29.747Z,7.88
2022-08-17T10:13:03.678Z,7.43
2022-08-17T10:15:34.764Z,8.18
2022-08-17T10:18:21.549Z,8.80
2022-08-17T10:21:20.064Z,9.80
2022-08-17T10:24:10.235Z,9.70
2022-08-17T10:26:55.363Z,8.55
2022-08-17T10:29:29.008Z,7.75
2022-08-17T10:32:04.786Z,8.07
2022-08-17T10:34:40.396Z,7.57
2022-08-17T10:37:28.550Z,7.70
2022-08-17T10:40:05.011Z,8.15
2022-08-17T10:42:36.270Z,9.35
2022-08-17T10:45:07.071Z,8.57
2022-08-17T10:48:06.560Z,8.30
2022-08-17T10:50:43.596Z,8.02
2022-08-17T10:53:11.553Z,10.10
2022-08-17T10:55:39.253Z,8.80
2022-08-17T10:58:24.537Z,8.98
2022-08-17T11:00:54.878Z,8.05
2022-08-17T11:03:24.148Z,7.05
2022-08-17T11:06:12.810Z,8.73
2022-08-17T11:08:49.596Z,8.25
2022-08-17T11:11:36.190Z,7.78
2022-08-17T11:14:13.999Z,7.95
2022-08-17T11:17:06.291Z,7.97
2022-08-17T11:19:52.237Z,6.53
2022-08-17T11:22:22.826Z,7.43
2022-08-17T11:24:52.025Z,7.15
2022-08-17T11:27:22.432Z,6.50
2022-08-17T11:29:53.584Z,6.93
2022-08-17T11:32:31.384Z,7.18
2022-08-17T11:35:08.461Z,7.13
2022-08-17T11:37:45.501Z,8.18
2022-08-17T11:40:13.079Z,7.28
2022-08-17T11:42:40.579Z,8.48
2022-08-17T11:45:08.040Z,7.65
2022-08-17T11:48:29.220Z,7.72
2022-08-17T11:51:18.667Z,7.63
2022-08-17T11:53:46.164Z,7.90
2022-08-17T11:56:31.876Z,9.20
2022-08-17T11:59:00.823Z,9.90
2022-08-17T12:01:29.006Z,9.55
2022-08-17T12:04:16.484Z,8.95
2022-08-17T12:06:52.744Z,8.98
2022-08-17T12:09:25.177Z,8.88
2022-08-17T12:12:12.538Z,9.00
2022-08-17T12:15:08.869Z,10.77
2022-08-17T12:17:40.637Z,9.15
2022-08-17T12:20:40.370Z,7.97
2022-08-17T12:23:17.162Z,8.35
2022-08-17T12:25:56.789Z,9.52
2022-08-17T12:28:29.775Z,9.30
2022-08-17T12:31:00.257Z,8.98
2022-08-17T12:33:29.036Z,8.45
2022-08-17T12:35:59.692Z,9.23
2022-08-17T12:38:33.353Z,8.40
2022-08-17T12:41:21.827Z,8.30
2022-08-17T12:44:01.800Z,8.57
2022-08-17T12:46:45.965Z,7.97
2022-08-17T12:49:34.432Z,7.80
2022-08-17T12:52:25.103Z,7.28
2022-08-17T12:54:59.503Z,7.88
2022-08-17T12:57:27.136Z,7.28
2022-08-17T12:59:58.977Z,7.13
2022-08-17T13:02:39.264Z,7.75
2022-08-17T13:05:07.789Z,7.28
2022-08-17T13:07:37.497Z,7.43
2022-08-17T13:10:05.379Z,7.88
2022-08-17T13:12:34.520Z,6.50
2022-08-17T13:15:02.593Z,8.20
2022-08-17T13:17:32.294Z,8.18
2022-08-17T13:19:59.905Z,7.00
2022-08-17T13:22:28.829Z,7.90
2022-08-17T13:25:03.857Z,7.72
2022-08-17T13:27:32.560Z,7.80
2022-08-17T13:30:05.730Z,7.68
2022-08-17T13:32:36.247Z,8.07
2022-08-17T13:35:29.545Z,7.05
2022-08-17T13:40:36.489Z,6.93
2022-08-17T13:43:04.280Z,5.97
2022-08-17T13:45:36.483Z,7.53
2022-08-17T13:48:06.667Z,6.25
2022-08-17T13:50:34.822Z,6.43
2022-08-17T13:53:02.675Z,5.97
2022-08-17T13:55:33.199Z,10.65
2022-08-17T13:58:06.758Z,9.57
2022-08-17T14:00:36.511Z,11.95
2022-08-17T14:03:05.253Z,10.52
2022-08-17T14:05:33.931Z,8.77
2022-08-17T14:08:06.774Z,7.80
2022-08-17T14:10:36.664Z,7.43
2022-08-17T14:13:04.990Z,7.32
2022-08-17T14:15:56.041Z,7.30
2022-08-17T14:18:34.299Z,6.85
2022-08-17T14:21:09.952Z,6.68
2022-08-17T14:23:38.037Z,6.45
2022-08-17T14:26:06.011Z,7.47
2022-08-17T14:28:33.946Z,6.45
2022-08-17T14:31:04.435Z,5.95
2022-08-17T14:33:32.070Z,6.15
2022-08-17T14:36:00.256Z,7.25
2022-08-17T14:38:28.080Z,7.03
2022-08-17T14:40:55.692Z,6.38
2022-08-17T14:43:23.315Z,7.15
2022-08-17T14:45:51.982Z,6.20
2022-08-17T14:48:19.534Z,6.30
2022-08-17T14:50:47.020Z,6.00
2022-08-17T14:53:16.252Z,6.57
2022-08-17T14:55:46.870Z,5.65
2022-08-17T14:58:15.000Z,6.13
2022-08-17T15:00:43.831Z,5.57
2022-08-17T15:03:11.957Z,6.00
2022-08-17T15:05:40.524Z,6.38
2022-08-17T15:08:08.541Z,5.70
2022-08-17T15:10:36.532Z,5.68
2022-08-17T15:13:04.164Z,6.85
2022-08-17T15:15:31.912Z,7.53
2022-08-17T15:18:00.179Z,6.57
2022-08-17T15:20:29.672Z,7.85
2022-08-17T15:22:59.064Z,21.92
2022-08-17T15:25:27.870Z,15.57
2022-08-17T15:27:56.032Z,12.23
2022-08-17T15:30:24.209Z,10.55
2022-08-17T15:32:55.347Z,10.45
2022-08-17T15:35:29.453Z,10.15
2022-08-17T15:38:04.936Z,10.15
2022-08-17T15:40:37.371Z,10.43
2022-08-17T15:43:13.347Z,11.05
2022-08-17T15:48:09.082Z,11.02
2022-08-17T15:50:36.841Z,12.70
2022-08-17T15:53:05.094Z,11.82
2022-08-17T15:55:33.225Z,10.57
2022-08-17T15:58:01.347Z,10.75
2022-08-17T16:00:29.631Z,10.15
2022-08-17T16:03:45.811Z,9.45
2022-08-17T16:05:48.220Z,9.70
2022-08-17T16:08:21.164Z,10.30
2022-08-17T16:10:50.343Z,9.73
2022-08-17T16:13:18.822Z,9.65
2022-08-17T16:15:53.021Z,9.65
2022-08-17T16:18:25.703Z,9.05
2022-08-17T16:20:53.703Z,8.40
2022-08-17T16:23:21.484Z,9.00
2022-08-17T16:25:53.506Z,8.23
2022-08-17T16:28:36.061Z,8.02
2022-08-17T16:31:08.003Z,7.57
2022-08-17T16:33:36.529Z,9.13
2022-08-17T16:36:04.389Z,8.55
2022-08-17T16:38:31.930Z,7.72
2022-08-17T16:40:59.834Z,7.20
2022-08-17T16:43:28.466Z,8.32
2022-08-17T16:45:56.101Z,7.03
2022-08-17T16:48:23.764Z,8.00
2022-08-17T16:51:03.370Z,7.25
2022-08-17T16:53:32.174Z,7.88
2022-08-17T16:55:59.743Z,7.15
2022-08-17T16:58:27.367Z,6.13
2022-08-17T17:00:57.379Z,6.53
2022-08-17T17:03:26.604Z,7.05
2022-08-17T17:05:57.793Z,6.10
2022-08-17T17:08:28.023Z,7.00
2022-08-17T17:10:56.490Z,6.88
2022-08-17T17:13:31.334Z,6.88
2022-08-17T17:16:07.276Z,6.10
2022-08-17T17:18:48.132Z,7.00
2022-08-17T17:21:19.970Z,5.40
2022-08-17T17:23:47.493Z,4.70
2022-08-17T17:26:20.993Z,4.90
2022-08-17T17:29:11.233Z,4.32
2022-08-17T17:31:42.345Z,4.88
2022-08-17T17:34:13.849Z,5.22
2022-08-17T17:36:47.306Z,4.57
2022-08-17T17:39:14.873Z,4.80
2022-08-17T17:41:44.978Z,5.28
2022-08-17T17:44:17.862Z,5.20
2022-08-17T17:46:51.269Z,5.85
2022-08-17T17:49:19.494Z,5.18
2022-08-17T17:52:09.875Z,5.10
2022-08-17T17:54:50.134Z,6.13
2022-08-17T17:57:26.574Z,4.95
2022-08-17T17:59:54.157Z,5.13
2022-08-17T18:02:51.203Z,7.88
2022-08-17T18:05:19.771Z,6.60
2022-08-17T18:07:56.081Z,6.28
2022-08-17T18:10:31.608Z,5.85
2022-08-17T18:13:12.474Z,6.18
2022-08-17T18:15:51.358Z,5.43
2022-08-17T18:18:19.490Z,5.60
2022-08-17T18:20:53.985Z,5.70
2022-08-17T18:23:27.927Z,4.80
2022-08-17T18:25:56.597Z,5.30
2022-08-17T18:28:25.208Z,5.05
2022-08-17T18:31:04.293Z,4.63
2022-08-17T18:33:31.842Z,5.15
2022-08-17T18:36:01.252Z,5.75
2022-08-17T18:38:36.601Z,5.18
2022-08-17T18:41:18.648Z,5.20
2022-08-17T18:43:58.544Z,5.18
2022-08-17T18:46:29.765Z,4.88
2022-08-17T18:49:10.598Z,5.47
2022-08-17T18:51:42.156Z,4.40
2022-08-17T18:54:22.273Z,4.78
2022-08-17T18:56:52.255Z,4.75
2022-08-17T18:59:38.932Z,5.38
2022-08-17T19:02:21.608Z,5.55
2022-08-17T19:05:34.568Z,5.53
2022-08-17T19:08:20.371Z,6.32
2022-08-17T19:10:49.755Z,4.27
2022-08-17T19:13:29.819Z,5.15
2022-08-17T19:16:11.695Z,4.28
2022-08-17T19:19:03.467Z,5.30
2022-08-17T19:21:34.621Z,5.05
2022-08-17T19:24:37.423Z,5.15
2022-08-17T19:27:18.522Z,4.85
2022-08-17T19:29:47.176Z,5.05
2022-08-17T19:32:17.038Z,5.78
2022-08-17T19:34:44.905Z,5.43
2022-08-17T19:37:24.734Z,5.97
2022-08-17T19:40:24.486Z,5.78
2022-08-17T19:43:00.962Z,4.85
2022-08-17T19:45:34.491Z,5.85
2022-08-17T19:48:12.566Z,6.13
2022-08-17T19:50:59.167Z,5.63
2022-08-17T19:54:04.303Z,6.97
2022-08-17T19:56:45.351Z,7.20
2022-08-17T19:59:15.884Z,7.13
2022-08-17T20:01:47.173Z,7.22
2022-08-17T20:04:43.958Z,6.70
2022-08-17T20:07:22.937Z,8.10
2022-08-17T20:10:08.258Z,8.60
2022-08-17T20:12:39.611Z,9.30
2022-08-17T20:15:10.445Z,10.45
2022-08-17T20:17:40.440Z,9.93
2022-08-17T20:20:26.808Z,9.13
2022-08-17T20:23:00.206Z,9.80
2022-08-17T20:25:42.970Z,10.13
2022-08-17T20:28:21.117Z,9.50
2022-08-17T20:30:48.887Z,9.55
2022-08-17T20:33:42.586Z,8.38
2022-08-17T20:36:20.586Z,8.63
2022-08-17T20:38:57.627Z,7.93
2022-08-17T20:41:26.584Z,7.75
2022-08-17T20:43:57.255Z,11.18
2022-08-17T20:46:24.806Z,11.90
2022-08-17T20:48:54.443Z,9.07
2022-08-17T20:51:26.150Z,11.05
2022-08-17T20:53:53.715Z,10.77
2022-08-17T20:56:39.771Z,11.13
2022-08-17T20:59:07.347Z,10.95
2022-08-17T21:01:36.452Z,10.60
2022-08-17T21:04:07.140Z,9.57
2022-08-17T21:06:34.663Z,9.40
2022-08-17T21:09:15.840Z,8.40
2022-08-17T21:12:02.207Z,10.00
2022-08-17T21:14:37.425Z,8.82
2022-08-17T21:17:15.157Z,9.38
2022-08-17T21:20:10.451Z,8.63
2022-08-17T21:23:01.439Z,9.32
2022-08-17T21:25:46.443Z,9.32
2022-08-17T21:28:21.408Z,10.15
2022-08-17T21:30:58.323Z,8.93
2022-08-17T21:33:31.798Z,9.18
2022-08-17T21:36:17.284Z,8.02
2022-08-17T21:38:53.371Z,8.68
2022-08-17T21:41:27.498Z,7.13
2022-08-17T21:43:57.803Z,8.13
2022-08-17T21:46:30.286Z,8.82
2022-08-17T21:49:09.128Z,7.63
2022-08-17T21:51:50.796Z,8.07
2022-08-17T21:54:21.507Z,7.05
2022-08-17T21:56:49.294Z,7.88
2022-08-17T21:59:19.829Z,6.90
2022-08-17T22:01:53.654Z,7.95
2022-08-17T22:04:26.235Z,8.13
2022-08-17T22:06:57.056Z,9.18
2022-08-17T22:09:28.171Z,8.27
2022-08-17T22:11:57.958Z,8.43
2022-08-17T22:14:51.720Z,7.25
2022-08-17T22:17:18.528Z,7.20
2022-08-17T22:19:51.607Z,7.80
2022-08-17T22:22:28.455Z,8.40
2022-08-17T22:24:58.067Z,7.60
2022-08-17T22:27:45.529Z,7.82
2022-08-17T22:30:19.007Z,7.07
2022-08-17T22:32:49.458Z,7.35
2022-08-17T22:35:18.271Z,7.82
2022-08-17T22:37:45.810Z,7.50
2022-08-17T22:40:25.059Z,8.27
2022-08-17T22:42:53.896Z,8.00
2022-08-17T22:45:21.644Z,8.07
2022-08-17T22:47:49.434Z,7.15
2022-08-17T22:50:28.696Z,7.07
2022-08-17T22:53:16.785Z,7.03
2022-08-17T22:56:15.828Z,7.50
2022-08-17T22:59:12.649Z,7.07
2022-08-17T23:01:40.655Z,6.32
2022-08-17T23:04:12.404Z,5.40
2022-08-17T23:06:42.725Z,6.38
2022-08-17T23:09:10.334Z,5.75
2022-08-17T23:11:50.204Z,6.32
2022-08-17T23:14:19.322Z,6.68
2022-08-17T23:16:47.608Z,6.93
2022-08-17T23:19:17.082Z,6.55
2022-08-17T23:21:45.168Z,7.30
2022-08-17T23:24:15.600Z,7.38
2022-08-17T23:26:43.097Z,7.50
2022-08-17T23:29:10.620Z,8.30
2022-08-17T23:31:39.518Z,7.75
2022-08-17T23:34:11.306Z,7.28
2022-08-17T23:36:38.991Z,7.60
2022-08-17T23:39:07.503Z,8.18
2022-08-17T23:41:36.636Z,8.60
2022-08-17T23:44:06.435Z,8.40
2022-08-17T23:46:34.689Z,7.20
2022-08-17T23:49:03.321Z,8.07
2022-08-17T23:51:36.562Z,7.03
2022-08-17T23:54:08.414Z,6.95
2022-08-17T23:56:44.506Z,6.57
2022-08-17T23:59:13.331Z,6.25
